Time,TemperatureF,DewpointF,PressureIn,WindDirection,WindDirectionDegrees,WindSpeedMPH,WindSpeedGustMPH,Humidity,HourlyPrecipIn,Conditions,Clouds,dailyrainin,SoftwareType,DateUTC
2013-01-11 00:00:00,39.6,32.0,30.56,NNE,19,8.0,11.0,74,0.00,,,0.00,meteohub,2013-01-11 05:00:00,
2013-01-11 00:03:00,39.6,32.0,30.57,NNW,345,8.0,10.0,74,0.00,,,0.00,meteohub,2013-01-11 05:03:00,
2013-01-11 00:04:00,39.6,31.6,30.57,North,4,7.0,10.0,73,0.00,,,0.00,meteohub,2013-01-11 05:04:00,
2013-01-11 00:09:00,39.4,31.8,30.57,North,350,8.0,10.0,74,0.00,,,0.00,meteohub,2013-01-11 05:09:00,
2013-01-11 00:14:00,39.4,32.2,30.57,North,8,6.0,10.0,75,0.00,,,0.00,meteohub,2013-01-11 05:14:00,
2013-01-11 00:19:00,39.2,31.6,30.57,NNE,19,2.0,10.0,74,0.00,,,0.00,meteohub,2013-01-11 05:19:00,
2013-01-11 00:24:00,38.8,31.3,30.57,North,352,5.0,10.0,74,0.00,,,0.00,meteohub,2013-01-11 05:24:00,
2013-01-11 00:29:00,38.8,31.6,30.56,NE,49,3.0,8.0,75,0.00,,,0.00,meteohub,2013-01-11 05:29:00,
2013-01-11 00:34:00,38.7,31.8,30.57,North,350,2.0,8.0,76,0.00,,,0.00,meteohub,2013-01-11 05:34:00,
2013-01-11 00:39:00,38.5,31.6,30.56,NNW,343,5.0,8.0,76,0.00,,,0.00,meteohub,2013-01-11 05:39:00,
2013-01-11 00:44:00,38.7,31.5,30.57,NW,325,2.0,7.0,75,0.00,,,0.00,meteohub,2013-01-11 05:44:00,
2013-01-11 00:49:00,38.7,32.0,30.57,NNE,13,6.0,9.0,77,0.00,,,0.00,meteohub,2013-01-11 05:49:00,
2013-01-11 00:54:00,38.8,31.6,30.56,NE,34,7.0,9.0,75,0.00,,,0.00,meteohub,2013-01-11 05:54:00,
2013-01-11 00:59:00,38.8,31.6,30.56,NNE,23,6.0,8.0,75,0.00,,,0.00,meteohub,2013-01-11 05:59:00,
2013-01-11 01:04:00,38.7,31.1,30.58,NNW,339,1.0,10.0,74,0.00,,,0.00,meteohub,2013-01-11 06:04:00,
2013-01-11 01:09:00,38.5,31.8,30.56,NNE,19,3.0,10.0,77,0.00,,,0.00,meteohub,2013-01-11 06:09:00,
2013-01-11 01:14:00,38.5,31.8,30.56,NE,39,2.0,10.0,77,0.00,,,0.00,meteohub,2013-01-11 06:14:00,
2013-01-11 01:19:00,38.1,31.6,30.57,NE,36,1.0,7.0,77,0.00,,,0.00,meteohub,2013-01-11 06:19:00,
2013-01-11 01:24:00,37.9,31.5,30.56,NNE,19,8.0,8.0,77,0.00,,,0.00,meteohub,2013-01-11 06:24:00,
2013-01-11 01:29:00,38.1,31.6,30.56,NNW,345,2.0,9.0,77,0.00,,,0.00,meteohub,2013-01-11 06:29:00,
2013-01-11 01:34:00,37.9,31.5,30.56,ENE,61,4.0,9.0,77,0.00,,,0.00,meteohub,2013-01-11 06:34:00,
2013-01-11 01:39:00,38.1,32.2,30.56,NNW,337,5.0,9.0,79,0.00,,,0.00,meteohub,2013-01-11 06:39:00,
2013-01-11 01:44:00,38.1,32.2,30.57,North,0,5.0,9.0,79,0.00,,,0.00,meteohub,2013-01-11 06:44:00,
2013-01-11 01:49:00,37.9,31.6,30.57,WNW,299,3.0,8.0,78,0.00,,,0.00,meteohub,2013-01-11 06:49:00,
2013-01-11 01:54:00,37.8,31.5,30.56,NE,37,5.0,8.0,78,0.00,,,0.00,meteohub,2013-01-11 06:54:00,
2013-01-11 01:59:00,37.9,32.0,30.56,NNE,12,3.0,8.0,79,0.00,,,0.00,meteohub,2013-01-11 06:59:00,
2013-01-11 02:04:00,37.8,31.8,30.55,North,354,3.0,7.0,79,0.00,,,0.00,meteohub,2013-01-11 07:04:00,
2013-01-11 02:09:00,37.9,32.4,30.55,North,1,6.0,10.0,80,0.00,,,0.00,meteohub,2013-01-11 07:09:00,
2013-01-11 02:14:00,37.8,32.2,30.55,ENE,67,2.0,10.0,80,0.00,,,0.00,meteohub,2013-01-11 07:14:00,
2013-01-11 02:19:00,37.8,32.2,30.55,NNE,32,6.0,10.0,80,0.00,,,0.00,meteohub,2013-01-11 07:19:00,
2013-01-11 02:24:00,37.8,32.2,30.55,NNW,335,3.0,7.0,80,0.00,,,0.00,meteohub,2013-01-11 07:24:00,
2013-01-11 02:29:00,37.9,32.0,30.55,NE,36,4.0,8.0,79,0.00,,,0.00,meteohub,2013-01-11 07:29:00,
2013-01-11 02:34:00,37.9,32.0,30.54,NE,41,5.0,11.0,79,0.00,,,0.00,meteohub,2013-01-11 07:34:00,
2013-01-11 02:39:00,37.9,32.0,30.54,NE,34,7.0,11.0,79,0.00,,,0.00,meteohub,2013-01-11 07:39:00,
2013-01-11 02:44:00,38.1,31.8,30.54,NE,55,2.0,11.0,78,0.00,,,0.00,meteohub,2013-01-11 07:44:00,
2013-01-11 02:49:00,37.9,31.6,30.55,NE,53,3.0,10.0,78,0.00,,,0.00,meteohub,2013-01-11 07:49:00,
2013-01-11 02:54:00,37.9,31.6,30.55,NE,49,2.0,10.0,78,0.00,,,0.00,meteohub,2013-01-11 07:54:00,
2013-01-11 02:59:00,37.8,31.5,30.54,NE,47,5.0,10.0,78,0.00,,,0.00,meteohub,2013-01-11 07:59:00,
2013-01-11 03:04:00,37.8,31.3,30.53,NE,53,7.0,9.0,77,0.00,,,0.00,meteohub,2013-01-11 08:04:00,
2013-01-11 03:09:00,37.6,31.1,30.54,NE,49,7.0,9.0,77,0.00,,,0.00,meteohub,2013-01-11 08:09:00,
2013-01-11 03:14:00,37.6,30.7,30.53,NE,41,7.0,9.0,76,0.00,,,0.00,meteohub,2013-01-11 08:14:00,
2013-01-11 03:19:00,37.6,30.4,30.53,NE,41,2.0,9.0,75,0.00,,,0.00,meteohub,2013-01-11 08:19:00,
2013-01-11 03:24:00,37.6,30.0,30.53,ENE,58,4.0,8.0,74,0.00,,,0.00,meteohub,2013-01-11 08:24:00,
2013-01-11 03:29:00,37.6,30.0,30.53,NE,49,3.0,8.0,74,0.00,,,0.00,meteohub,2013-01-11 08:29:00,
2013-01-11 03:34:00,37.6,30.4,30.53,NE,46,2.0,8.0,75,0.00,,,0.00,meteohub,2013-01-11 08:34:00,
2013-01-11 03:39:00,37.4,30.2,30.54,NNE,31,5.0,7.0,75,0.00,,,0.00,meteohub,2013-01-11 08:39:00,
2013-01-11 03:44:00,37.4,29.5,30.53,NE,45,4.0,9.0,73,0.00,,,0.00,meteohub,2013-01-11 08:44:00,
2013-01-11 03:49:00,37.2,28.8,30.53,ENE,70,4.0,9.0,71,0.00,,,0.00,meteohub,2013-01-11 08:49:00,
2013-01-11 03:54:00,37.2,29.1,30.53,ENE,63,3.0,9.0,72,0.00,,,0.00,meteohub,2013-01-11 08:54:00,
2013-01-11 03:59:00,37.2,29.3,30.53,NE,54,2.0,9.0,73,0.00,,,0.00,meteohub,2013-01-11 08:59:00,
2013-01-11 04:04:00,37.0,29.1,30.53,NE,40,4.0,9.0,73,0.00,,,0.00,meteohub,2013-01-11 09:04:00,
2013-01-11 04:09:00,36.9,28.9,30.53,NE,48,1.0,8.0,73,0.00,,,0.00,meteohub,2013-01-11 09:09:00,
2013-01-11 04:14:00,36.9,29.3,30.52,NNE,27,2.0,8.0,74,0.00,,,0.00,meteohub,2013-01-11 09:14:00,
2013-01-11 04:19:00,36.7,29.1,30.52,NNE,20,2.0,8.0,74,0.00,,,0.00,meteohub,2013-01-11 09:19:00,
2013-01-11 04:24:00,36.7,29.1,30.52,East,84,0.0,8.0,74,0.00,,,0.00,meteohub,2013-01-11 09:24:00,
2013-01-11 04:29:00,35.4,27.7,30.52,NNE,32,1.0,6.0,73,0.00,,,0.00,meteohub,2013-01-11 09:29:00,
2013-01-11 04:34:00,35.4,27.7,30.52,NNE,32,1.0,6.0,73,0.00,,,0.00,meteohub,2013-01-11 09:34:00,
2013-01-11 04:39:00,35.4,27.7,30.52,North,-999,-999.0,6.0,73,0.00,,,0.00,meteohub,2013-01-11 09:39:00,
2013-01-11 07:51:00,34.0,29.1,30.53,North,-999,-999.0,-999.0,82,-99.99,,,0.00,meteohub,2013-01-11 12:51:00,
2013-01-11 07:56:00,34.2,29.3,30.53,North,-999,-999.0,-999.0,82,0.00,,,0.00,meteohub,2013-01-11 12:56:00,
2013-01-11 08:01:00,34.3,29.7,30.53,ENE,65,2.0,3.0,83,0.00,,,0.00,meteohub,2013-01-11 13:01:00,
2013-01-11 08:06:00,34.3,29.7,30.53,ESE,110,0.0,4.0,83,0.00,,,0.00,meteohub,2013-01-11 13:06:00,
2013-01-11 08:11:00,34.5,29.8,30.53,ESE,114,1.0,4.0,83,0.00,,,0.00,meteohub,2013-01-11 13:11:00,
2013-01-11 08:16:00,34.9,30.0,30.53,East,100,0.0,4.0,82,0.00,,,0.00,meteohub,2013-01-11 13:16:00,
2013-01-11 08:21:00,34.9,30.0,30.53,ENE,73,1.0,4.0,82,0.00,,,0.00,meteohub,2013-01-11 13:21:00,
2013-01-11 08:26:00,35.1,29.8,30.53,ENE,68,0.0,3.0,81,0.00,,,0.00,meteohub,2013-01-11 13:26:00,
2013-01-11 08:31:00,35.2,30.0,30.53,ESE,107,0.0,4.0,81,0.00,,,0.00,meteohub,2013-01-11 13:31:00,
2013-01-11 08:37:00,35.6,30.4,30.53,East,89,0.0,4.0,81,0.00,,,0.00,meteohub,2013-01-11 13:37:00,
2013-01-11 08:42:00,35.8,30.2,30.53,ENE,77,1.0,3.0,80,0.00,,,0.00,meteohub,2013-01-11 13:42:00,
2013-01-11 08:47:00,35.8,30.2,30.53,SSE,162,0.0,4.0,80,0.00,,,0.00,meteohub,2013-01-11 13:47:00,
2013-01-11 08:52:00,36.0,30.0,30.54,ESE,119,1.0,5.0,79,0.00,,,0.00,meteohub,2013-01-11 13:52:00,
2013-01-11 08:57:00,36.1,30.6,30.54,East,86,2.0,5.0,80,0.00,,,0.00,meteohub,2013-01-11 13:57:00,
2013-01-11 09:02:00,36.3,30.7,30.53,East,92,0.0,4.0,80,0.00,,,0.00,meteohub,2013-01-11 14:02:00,
2013-01-11 09:07:00,36.5,30.6,30.53,ENE,65,1.0,3.0,79,0.00,,,0.00,meteohub,2013-01-11 14:07:00,
2013-01-11 09:12:00,36.7,30.7,30.54,East,91,2.0,3.0,79,0.00,,,0.00,meteohub,2013-01-11 14:12:00,
2013-01-11 09:17:00,36.9,30.9,30.53,East,79,1.0,3.0,79,0.00,,,0.00,meteohub,2013-01-11 14:17:00,
2013-01-11 09:22:00,36.9,30.9,30.52,ENE,77,3.0,4.0,79,0.00,,,0.00,meteohub,2013-01-11 14:22:00,
2013-01-11 09:27:00,37.0,31.1,30.52,ESE,113,4.0,7.0,79,0.00,,,0.00,meteohub,2013-01-11 14:27:00,
2013-01-11 09:32:00,37.2,31.3,30.52,East,94,3.0,7.0,79,0.00,,,0.00,meteohub,2013-01-11 14:32:00,
2013-01-11 09:36:00,37.4,31.5,30.51,East,87,2.0,7.0,79,0.00,,,0.00,meteohub,2013-01-11 14:36:00,
2013-01-11 09:41:00,37.6,31.6,30.52,ESE,119,2.0,6.0,79,0.00,,,0.00,meteohub,2013-01-11 14:41:00,
2013-01-11 09:46:00,37.8,31.8,30.52,SSE,158,0.0,5.0,79,0.00,,,0.00,meteohub,2013-01-11 14:46:00,
2013-01-11 09:51:00,37.8,31.5,30.52,ENE,68,2.0,6.0,78,0.00,,,0.00,meteohub,2013-01-11 14:51:00,
2013-01-11 09:56:00,37.9,32.0,30.52,ENE,75,3.0,6.0,79,0.00,,,0.00,meteohub,2013-01-11 14:56:00,
2013-01-11 10:01:00,37.9,32.0,30.51,East,86,2.0,6.0,79,0.00,,,0.00,meteohub,2013-01-11 15:01:00,
2013-01-11 10:06:00,38.3,32.4,30.51,ENE,76,3.0,6.0,79,0.00,,,0.00,meteohub,2013-01-11 15:06:00,
2013-01-11 10:11:00,38.7,32.4,30.51,ESE,114,3.0,6.0,78,0.00,,,0.00,meteohub,2013-01-11 15:11:00,
2013-01-11 10:16:00,39.0,32.7,30.50,East,79,0.0,6.0,78,0.00,,,0.00,meteohub,2013-01-11 15:16:00,
2013-01-11 10:21:00,39.4,33.1,30.50,ENE,58,5.0,6.0,78,0.00,,,0.00,meteohub,2013-01-11 15:21:00,
2013-01-11 10:26:00,39.7,33.1,30.51,ENE,72,0.0,6.0,77,0.00,,,0.00,meteohub,2013-01-11 15:26:00,
2013-01-11 10:31:00,40.3,33.6,30.51,East,91,0.0,7.0,77,0.00,,,0.00,meteohub,2013-01-11 15:31:00,
2013-01-11 10:36:00,40.3,33.6,30.51,ESE,108,0.0,7.0,77,0.00,,,0.00,meteohub,2013-01-11 15:36:00,
2013-01-11 10:41:00,40.3,33.6,30.51,East,82,2.0,5.0,77,0.00,,,0.00,meteohub,2013-01-11 15:41:00,
2013-01-11 10:46:00,40.3,33.6,30.50,ESE,123,1.0,5.0,77,0.00,,,0.00,meteohub,2013-01-11 15:46:00,
2013-01-11 10:52:00,40.5,33.8,30.50,ESE,120,2.0,5.0,77,0.00,,,0.00,meteohub,2013-01-11 15:52:00,
2013-01-11 10:57:00,40.6,34.0,30.49,SE,125,3.0,5.0,77,0.00,,,0.00,meteohub,2013-01-11 15:57:00,
2013-01-11 11:02:00,40.5,33.4,30.49,ESE,108,3.0,6.0,76,0.00,,,0.00,meteohub,2013-01-11 16:02:00,
2013-01-11 11:07:00,40.5,33.8,30.48,ESE,114,4.0,8.0,77,0.00,,,0.00,meteohub,2013-01-11 16:07:00,
2013-01-11 11:12:00,40.5,33.8,30.48,East,89,2.0,8.0,77,0.00,,,0.00,meteohub,2013-01-11 16:12:00,
2013-01-11 11:17:00,40.5,34.2,30.47,ESE,107,1.0,8.0,78,0.00,,,0.00,meteohub,2013-01-11 16:17:00,
2013-01-11 11:22:00,40.5,34.2,30.48,East,91,1.0,8.0,78,0.00,,,0.00,meteohub,2013-01-11 16:22:00,
2013-01-11 11:27:00,40.6,34.3,30.47,ENE,76,1.0,8.0,78,0.00,,,0.00,meteohub,2013-01-11 16:27:00,
2013-01-11 11:32:00,40.6,34.3,30.48,SE,131,0.0,6.0,78,0.00,,,0.00,meteohub,2013-01-11 16:32:00,
2013-01-11 11:37:00,41.2,34.9,30.47,East,82,2.0,6.0,78,0.00,,,0.00,meteohub,2013-01-11 16:37:00,
2013-01-11 11:42:00,41.2,34.9,30.47,East,97,2.0,5.0,78,0.00,,,0.00,meteohub,2013-01-11 16:42:00,
2013-01-11 11:47:00,41.4,35.1,30.46,ESE,104,1.0,5.0,78,0.00,,,0.00,meteohub,2013-01-11 16:47:00,
2013-01-11 11:52:00,41.4,35.1,30.45,East,92,3.0,6.0,78,0.00,,,0.00,meteohub,2013-01-11 16:52:00,
2013-01-11 11:57:00,41.4,35.1,30.44,East,86,1.0,6.0,78,0.00,,,0.00,meteohub,2013-01-11 16:57:00,
2013-01-11 12:02:00,41.4,35.4,30.44,SE,127,3.0,7.0,79,0.00,,,0.00,meteohub,2013-01-11 17:02:00,
2013-01-11 12:07:00,41.4,35.4,30.43,East,80,4.0,7.0,79,0.00,,,0.00,meteohub,2013-01-11 17:07:00,
2013-01-11 12:12:00,41.4,35.4,30.43,ENE,76,3.0,7.0,79,0.00,,,0.00,meteohub,2013-01-11 17:12:00,
2013-01-11 12:17:00,41.4,35.4,30.43,East,80,0.0,7.0,79,0.00,,,0.00,meteohub,2013-01-11 17:17:00,
2013-01-11 12:22:00,41.4,35.6,30.42,SE,127,0.0,6.0,80,0.00,,,0.00,meteohub,2013-01-11 17:22:00,
2013-01-11 12:27:00,41.5,35.8,30.42,ENE,72,0.0,6.0,80,0.00,,,0.00,meteohub,2013-01-11 17:27:00,
2013-01-11 12:32:00,41.7,36.0,30.42,ESE,103,2.0,5.0,80,0.00,,,0.00,meteohub,2013-01-11 17:32:00,
2013-01-11 12:37:00,41.9,36.1,30.42,ENE,63,0.0,4.0,80,0.00,,,0.00,meteohub,2013-01-11 17:37:00,
2013-01-11 12:42:00,42.1,36.3,30.42,ENE,77,0.0,4.0,80,0.00,,,0.00,meteohub,2013-01-11 17:42:00,
2013-01-11 12:47:00,42.3,36.1,30.42,East,84,2.0,4.0,79,0.00,,,0.00,meteohub,2013-01-11 17:47:00,
2013-01-11 12:52:00,42.3,36.5,30.40,ESE,115,1.0,4.0,80,0.00,,,0.00,meteohub,2013-01-11 17:52:00,
2013-01-11 12:57:00,42.4,36.7,30.40,East,91,4.0,4.0,80,0.00,,,0.00,meteohub,2013-01-11 17:57:00,
2013-01-11 13:02:00,42.4,36.3,30.40,SE,134,1.0,4.0,79,0.00,,,0.00,meteohub,2013-01-11 18:02:00,
2013-01-11 13:07:00,42.4,36.7,30.41,ESE,110,0.0,5.0,80,0.00,,,0.00,meteohub,2013-01-11 18:07:00,
2013-01-11 13:12:00,42.3,36.9,30.41,East,93,0.0,5.0,81,0.00,,,0.00,meteohub,2013-01-11 18:12:00,
2013-01-11 13:17:00,42.4,37.0,30.41,ENE,77,1.0,4.0,81,0.00,,,0.00,meteohub,2013-01-11 18:17:00,
2013-01-11 13:21:00,42.4,37.0,30.40,NE,54,3.0,4.0,81,0.00,,,0.00,meteohub,2013-01-11 18:21:00,
2013-01-11 13:26:00,42.8,37.4,30.40,East,89,4.0,4.0,81,0.00,,,0.00,meteohub,2013-01-11 18:26:00,
2013-01-11 13:31:00,43.0,37.6,30.40,SSE,149,1.0,6.0,81,0.00,,,0.00,meteohub,2013-01-11 18:31:00,
2013-01-11 13:37:00,43.3,37.9,30.39,SE,133,1.0,6.0,81,0.00,,,0.00,meteohub,2013-01-11 18:37:00,
2013-01-11 13:42:00,43.5,38.1,30.39,East,94,1.0,6.0,81,0.00,,,0.00,meteohub,2013-01-11 18:42:00,
2013-01-11 13:47:00,43.5,38.1,30.38,ESE,107,1.0,8.0,81,0.00,,,0.00,meteohub,2013-01-11 18:47:00,
2013-01-11 13:52:00,43.5,38.1,30.38,ESE,117,1.0,8.0,81,0.00,,,0.00,meteohub,2013-01-11 18:52:00,
2013-01-11 13:57:00,43.5,38.1,30.40,SSE,168,0.0,7.0,81,0.00,,,0.00,meteohub,2013-01-11 18:57:00,
2013-01-11 14:02:00,43.5,38.5,30.40,ESE,113,3.0,7.0,82,0.00,,,0.00,meteohub,2013-01-11 19:02:00,
2013-01-11 14:06:00,43.5,38.5,30.40,ENE,74,1.0,5.0,82,0.00,,,0.00,meteohub,2013-01-11 19:06:00,
2013-01-11 14:11:00,43.5,38.5,30.40,SSE,149,0.0,5.0,82,0.00,,,0.00,meteohub,2013-01-11 19:11:00,
2013-01-11 14:16:00,43.5,38.5,30.39,ESE,122,0.0,5.0,82,0.00,,,0.00,meteohub,2013-01-11 19:16:00,
2013-01-11 14:21:00,43.5,38.5,30.38,East,97,3.0,3.0,82,0.00,,,0.00,meteohub,2013-01-11 19:21:00,
2013-01-11 14:27:00,43.5,38.7,30.38,SE,131,0.0,5.0,83,0.00,,,0.00,meteohub,2013-01-11 19:27:00,
2013-01-11 14:32:00,43.5,38.7,30.38,ESE,119,0.0,5.0,83,0.00,,,0.00,meteohub,2013-01-11 19:32:00,
2013-01-11 14:37:00,43.5,38.7,30.38,ESE,120,4.0,5.0,83,0.00,,,0.00,meteohub,2013-01-11 19:37:00,
2013-01-11 14:42:00,43.9,39.4,30.38,ESE,120,1.0,7.0,84,0.00,,,0.00,meteohub,2013-01-11 19:42:00,
2013-01-11 14:47:00,44.1,39.6,30.37,ENE,65,4.0,7.0,84,0.00,,,0.00,meteohub,2013-01-11 19:47:00,
2013-01-11 14:52:00,44.1,39.6,30.38,SE,136,0.0,7.0,84,0.00,,,0.00,meteohub,2013-01-11 19:52:00,
2013-01-11 14:57:00,44.2,39.4,30.37,ESE,112,2.0,6.0,83,0.00,,,0.00,meteohub,2013-01-11 19:57:00,
2013-01-11 15:02:00,44.2,39.4,30.37,ESE,119,0.0,6.0,83,0.00,,,0.00,meteohub,2013-01-11 20:02:00,
2013-01-11 15:07:00,44.2,39.7,30.37,SSE,153,3.0,7.0,84,0.00,,,0.00,meteohub,2013-01-11 20:07:00,
2013-01-11 15:12:00,44.2,39.7,30.37,SE,127,1.0,7.0,84,0.00,,,0.00,meteohub,2013-01-11 20:12:00,
2013-01-11 15:17:00,44.2,39.7,30.36,East,91,4.0,7.0,84,0.00,,,0.00,meteohub,2013-01-11 20:17:00,
2013-01-11 15:22:00,44.2,39.7,30.36,SE,133,2.0,6.0,84,0.00,,,0.00,meteohub,2013-01-11 20:22:00,
2013-01-11 15:27:00,44.2,40.1,30.36,SE,133,2.0,6.0,85,0.00,,,0.00,meteohub,2013-01-11 20:27:00,
2013-01-11 15:32:00,44.2,40.1,30.36,East,95,4.0,6.0,85,0.00,,,0.00,meteohub,2013-01-11 20:32:00,
2013-01-11 15:37:00,44.1,39.9,30.36,ESE,123,2.0,7.0,85,0.00,,,0.00,meteohub,2013-01-11 20:37:00,
2013-01-11 15:42:00,44.1,39.9,30.36,ESE,121,1.0,7.0,85,0.00,,,0.00,meteohub,2013-01-11 20:42:00,
2013-01-11 15:47:00,43.9,39.7,30.36,ESE,118,1.0,7.0,85,0.00,,,0.00,meteohub,2013-01-11 20:47:00,
2013-01-11 15:52:00,43.9,39.9,30.35,SSE,148,2.0,5.0,86,0.00,,,0.00,meteohub,2013-01-11 20:52:00,
2013-01-11 15:57:00,43.7,39.7,30.35,SE,142,2.0,7.0,86,0.00,,,0.00,meteohub,2013-01-11 20:57:00,
2013-01-11 16:02:00,43.7,39.7,30.35,SE,146,1.0,7.0,86,0.00,,,0.00,meteohub,2013-01-11 21:02:00,
2013-01-11 16:07:00,43.5,39.6,30.35,SSE,165,1.0,7.0,86,0.00,,,0.00,meteohub,2013-01-11 21:07:00,
2013-01-11 16:12:00,43.5,39.6,30.35,East,96,1.0,6.0,86,0.00,,,0.00,meteohub,2013-01-11 21:12:00,
2013-01-11 16:17:00,43.5,39.6,30.35,SSE,162,3.0,5.0,86,0.00,,,0.00,meteohub,2013-01-11 21:17:00,
2013-01-11 16:22:00,43.5,39.9,30.35,SE,124,2.0,7.0,87,0.00,,,0.00,meteohub,2013-01-11 21:22:00,
2013-01-11 16:27:00,43.3,39.7,30.35,ESE,108,3.0,7.0,87,0.00,,,0.00,meteohub,2013-01-11 21:27:00,
2013-01-11 16:32:00,43.3,40.1,30.34,SE,138,0.0,7.0,88,0.00,,,0.00,meteohub,2013-01-11 21:32:00,
2013-01-11 16:37:00,43.2,39.9,30.34,East,95,1.0,5.0,88,0.00,,,0.00,meteohub,2013-01-11 21:37:00,
2013-01-11 16:42:00,43.0,39.9,30.33,SSE,156,1.0,5.0,89,0.00,,,0.00,meteohub,2013-01-11 21:42:00,
2013-01-11 16:47:00,42.8,40.1,30.33,SSE,148,0.0,5.0,90,0.00,,,0.00,meteohub,2013-01-11 21:47:00,
2013-01-11 16:52:00,42.4,40.3,30.32,SE,124,2.0,5.0,92,0.00,,,0.00,meteohub,2013-01-11 21:52:00,
2013-01-11 16:57:00,42.4,40.3,30.32,East,81,4.0,5.0,92,0.00,,,0.00,meteohub,2013-01-11 21:57:00,
2013-01-11 17:02:00,42.3,40.5,30.32,ESE,111,3.0,5.0,93,0.01,,,0.01,meteohub,2013-01-11 22:02:00,
2013-01-11 17:07:00,42.3,40.6,30.31,SE,139,1.0,5.0,94,0.01,,,0.01,meteohub,2013-01-11 22:07:00,
2013-01-11 17:12:00,42.1,40.5,30.32,SE,128,1.0,6.0,94,0.01,,,0.01,meteohub,2013-01-11 22:12:00,
2013-01-11 17:17:00,42.1,40.8,30.32,SSE,148,3.0,7.0,95,0.01,,,0.01,meteohub,2013-01-11 22:17:00,
2013-01-11 17:22:00,42.1,40.8,30.32,East,94,5.0,7.0,95,0.01,,,0.01,meteohub,2013-01-11 22:22:00,
2013-01-11 17:27:00,42.1,40.8,30.32,ESE,120,3.0,7.0,95,0.01,,,0.01,meteohub,2013-01-11 22:27:00,
2013-01-11 17:32:00,42.3,41.0,30.31,ESE,107,2.0,7.0,95,0.01,,,0.01,meteohub,2013-01-11 22:32:00,
2013-01-11 17:37:00,42.3,41.0,30.31,SE,126,1.0,7.0,95,0.01,,,0.01,meteohub,2013-01-11 22:37:00,
2013-01-11 17:42:00,42.3,41.2,30.31,SE,141,3.0,7.0,96,0.01,,,0.01,meteohub,2013-01-11 22:42:00,
2013-01-11 17:47:00,42.3,41.2,30.30,SE,131,2.0,5.0,96,0.01,,,0.01,meteohub,2013-01-11 22:47:00,
2013-01-11 17:52:00,42.3,41.2,30.31,ESE,122,1.0,5.0,96,0.02,,,0.02,meteohub,2013-01-11 22:52:00,
2013-01-11 17:57:00,42.3,41.2,30.30,ESE,117,1.0,7.0,96,0.03,,,0.03,meteohub,2013-01-11 22:57:00,
2013-01-11 18:02:00,42.3,41.2,30.29,East,83,7.0,7.0,96,0.02,,,0.03,meteohub,2013-01-11 23:02:00,
2013-01-11 18:07:00,42.3,41.2,30.30,East,91,1.0,7.0,96,0.03,,,0.04,meteohub,2013-01-11 23:07:00,
2013-01-11 18:12:00,42.4,41.4,30.30,ESE,122,2.0,7.0,96,0.04,,,0.05,meteohub,2013-01-11 23:12:00,
2013-01-11 18:17:00,42.4,41.4,30.30,SSE,157,2.0,7.0,96,0.04,,,0.05,meteohub,2013-01-11 23:17:00,
2013-01-11 18:22:00,42.4,41.7,30.30,SE,136,1.0,7.0,97,0.05,,,0.06,meteohub,2013-01-11 23:22:00,
2013-01-11 18:27:00,42.4,41.7,30.29,ESE,118,2.0,6.0,97,0.05,,,0.06,meteohub,2013-01-11 23:27:00,
2013-01-11 18:32:00,42.6,41.9,30.29,ESE,107,3.0,6.0,97,0.05,,,0.06,meteohub,2013-01-11 23:32:00,
2013-01-11 18:37:00,42.6,41.9,30.29,ESE,107,2.0,6.0,97,0.06,,,0.07,meteohub,2013-01-11 23:37:00,
2013-01-11 18:42:00,42.6,41.9,30.29,ESE,107,2.0,6.0,97,0.06,,,0.07,meteohub,2013-01-11 23:42:00,
2013-01-11 18:47:00,42.6,41.9,30.28,ESE,108,2.0,7.0,97,0.07,,,0.08,meteohub,2013-01-11 23:47:00,
2013-01-11 18:52:00,42.6,41.9,30.28,SE,132,2.0,7.0,97,0.06,,,0.08,meteohub,2013-01-11 23:52:00,
2013-01-11 18:57:00,42.6,41.9,30.28,SE,133,0.0,7.0,97,0.05,,,0.08,meteohub,2013-01-11 23:57:00,
2013-01-11 19:03:00,42.6,41.9,30.27,SE,124,1.0,7.0,97,0.05,,,0.09,meteohub,2013-01-12 00:03:00,
2013-01-11 19:08:00,42.6,41.9,30.27,ESE,102,3.0,5.0,97,0.04,,,0.00,meteohub,2013-01-12 00:08:00,
2013-01-11 19:13:00,42.6,41.9,30.27,ESE,103,1.0,6.0,97,0.05,,,0.01,meteohub,2013-01-12 00:13:00,
2013-01-11 19:18:00,42.8,42.1,30.27,East,98,2.0,6.0,97,0.04,,,0.01,meteohub,2013-01-12 00:18:00,
2013-01-11 19:23:00,43.0,42.3,30.27,SE,146,2.0,5.0,97,0.04,,,0.01,meteohub,2013-01-12 00:23:00,
2013-01-11 19:28:00,43.2,42.4,30.27,SE,141,1.0,8.0,97,0.04,,,0.01,meteohub,2013-01-12 00:28:00,
2013-01-11 19:33:00,43.3,42.6,30.26,ESE,118,1.0,8.0,97,0.04,,,0.01,meteohub,2013-01-12 00:33:00,
2013-01-11 19:38:00,43.3,42.6,30.26,SSE,148,1.0,8.0,97,0.04,,,0.02,meteohub,2013-01-12 00:38:00,
2013-01-11 19:43:00,43.5,43.0,30.26,ESE,122,2.0,6.0,98,0.04,,,0.02,meteohub,2013-01-12 00:43:00,
2013-01-11 19:48:00,43.5,43.0,30.25,SE,130,1.0,6.0,98,0.04,,,0.03,meteohub,2013-01-12 00:48:00,
2013-01-11 19:53:00,43.5,43.0,30.25,ESE,108,2.0,6.0,98,0.05,,,0.04,meteohub,2013-01-12 00:53:00,
2013-01-11 19:58:00,43.7,43.2,30.25,ESE,108,2.0,5.0,98,0.06,,,0.04,meteohub,2013-01-12 00:58:00,
2013-01-11 20:03:00,43.7,43.2,30.25,SSE,151,1.0,4.0,98,0.05,,,0.05,meteohub,2013-01-12 01:03:00,
2013-01-11 20:08:00,43.9,43.3,30.24,SE,133,2.0,5.0,98,0.06,,,0.06,meteohub,2013-01-12 01:08:00,
2013-01-11 20:13:00,43.9,43.3,30.25,ESE,120,0.0,5.0,98,0.06,,,0.07,meteohub,2013-01-12 01:13:00,
2013-01-11 20:18:00,44.1,43.5,30.24,SE,131,1.0,5.0,98,0.07,,,0.08,meteohub,2013-01-12 01:18:00,
2013-01-11 20:23:00,44.1,43.5,30.24,SSE,148,1.0,4.0,98,0.08,,,0.09,meteohub,2013-01-12 01:23:00,
2013-01-11 20:28:00,44.1,43.5,30.23,ESE,115,5.0,5.0,98,0.09,,,0.10,meteohub,2013-01-12 01:28:00,
2013-01-11 20:33:00,44.2,43.7,30.22,SE,127,4.0,5.0,98,0.09,,,0.11,meteohub,2013-01-12 01:33:00,
2013-01-11 20:38:00,44.4,43.9,30.22,East,96,1.0,5.0,98,0.10,,,0.12,meteohub,2013-01-12 01:38:00,
2013-01-11 20:43:00,44.6,44.1,30.22,ESE,122,1.0,5.0,98,0.09,,,0.12,meteohub,2013-01-12 01:43:00,
2013-01-11 20:48:00,44.8,44.2,30.23,South,172,0.0,7.0,98,0.10,,,0.13,meteohub,2013-01-12 01:48:00,
2013-01-11 20:53:00,44.8,44.2,30.23,SE,125,1.0,7.0,98,0.10,,,0.14,meteohub,2013-01-12 01:53:00,
2013-01-11 20:58:00,45.0,44.4,30.23,East,95,1.0,5.0,98,0.09,,,0.14,meteohub,2013-01-12 01:58:00,
2013-01-11 21:03:00,45.0,44.4,30.23,SE,129,0.0,5.0,98,0.09,,,0.15,meteohub,2013-01-12 02:03:00,
2013-01-11 21:08:00,45.1,44.6,30.24,SE,143,0.0,5.0,98,0.08,,,0.15,meteohub,2013-01-12 02:08:00,
2013-01-11 21:13:00,45.1,44.6,30.25,South,177,0.0,3.0,98,0.09,,,0.16,meteohub,2013-01-12 02:13:00,
2013-01-11 21:18:00,45.3,44.8,30.24,ESE,120,1.0,3.0,98,0.10,,,0.18,meteohub,2013-01-12 02:18:00,
2013-01-11 21:23:00,45.3,44.8,30.25,SE,134,1.0,3.0,98,0.10,,,0.19,meteohub,2013-01-12 02:23:00,
2013-01-11 21:28:00,45.3,44.8,30.25,SE,138,0.0,2.0,98,0.10,,,0.20,meteohub,2013-01-12 02:28:00,
2013-01-11 21:33:00,45.3,44.8,30.24,SE,129,1.0,2.0,98,0.11,,,0.22,meteohub,2013-01-12 02:33:00,
2013-01-11 21:38:00,45.3,44.8,30.25,SE,127,0.0,2.0,98,0.11,,,0.23,meteohub,2013-01-12 02:38:00,
2013-01-11 21:43:00,45.3,44.8,30.24,ESE,105,0.0,2.0,98,0.11,,,0.24,meteohub,2013-01-12 02:43:00,
2013-01-11 21:48:00,45.3,44.8,30.24,ESE,108,0.0,2.0,98,0.12,,,0.25,meteohub,2013-01-12 02:48:00,
2013-01-11 21:53:00,45.1,44.6,30.24,East,88,0.0,2.0,98,0.12,,,0.26,meteohub,2013-01-12 02:53:00,
2013-01-11 21:58:00,45.1,44.6,30.23,ESE,121,1.0,2.0,98,0.12,,,0.26,meteohub,2013-01-12 02:58:00,
2013-01-11 22:03:00,45.1,44.6,30.23,SSE,148,2.0,2.0,98,0.11,,,0.26,meteohub,2013-01-12 03:03:00,
2013-01-11 22:08:00,45.1,44.6,30.23,SE,135,0.0,2.0,98,0.10,,,0.26,meteohub,2013-01-12 03:08:00,
2013-01-11 22:13:00,45.1,44.6,30.22,SE,141,1.0,3.0,98,0.10,,,0.27,meteohub,2013-01-12 03:13:00,
2013-01-11 22:18:00,45.3,44.8,30.22,South,179,2.0,3.0,98,0.09,,,0.27,meteohub,2013-01-12 03:18:00,
2013-01-11 22:23:00,45.5,45.0,30.22,ESE,108,1.0,3.0,98,0.07,,,0.27,meteohub,2013-01-12 03:23:00,
2013-01-11 22:28:00,45.5,45.0,30.22,ESE,121,0.0,5.0,98,0.06,,,0.27,meteohub,2013-01-12 03:28:00,
2013-01-11 22:33:00,45.7,45.1,30.22,SSE,167,2.0,5.0,98,0.05,,,0.27,meteohub,2013-01-12 03:33:00,
2013-01-11 22:38:00,45.7,45.1,30.21,SE,146,2.0,5.0,98,0.03,,,0.27,meteohub,2013-01-12 03:38:00,
2013-01-11 22:43:00,45.7,45.1,30.21,SE,139,1.0,6.0,98,0.02,,,0.27,meteohub,2013-01-12 03:43:00,
2013-01-11 22:49:00,45.7,45.1,30.20,SE,138,1.0,6.0,98,0.02,,,0.27,meteohub,2013-01-12 03:49:00,
2013-01-11 22:54:00,45.7,45.1,30.20,SE,146,2.0,6.0,98,0.01,,,0.27,meteohub,2013-01-12 03:54:00,
2013-01-11 22:59:00,45.7,45.1,30.20,East,91,3.0,7.0,98,0.02,,,0.28,meteohub,2013-01-12 03:59:00,
2013-01-11 23:04:00,45.7,45.1,30.20,SE,124,3.0,7.0,98,0.02,,,0.28,meteohub,2013-01-12 04:04:00,
2013-01-11 23:09:00,45.9,45.3,30.19,SSE,151,3.0,7.0,98,0.02,,,0.28,meteohub,2013-01-12 04:09:00,
2013-01-11 23:14:00,45.9,45.3,30.19,ESE,122,1.0,6.0,98,0.02,,,0.29,meteohub,2013-01-12 04:14:00,
2013-01-11 23:19:00,46.0,45.5,30.19,SSE,149,0.0,7.0,98,0.02,,,0.29,meteohub,2013-01-12 04:19:00,
2013-01-11 23:24:00,46.0,45.5,30.19,SSE,162,0.0,7.0,98,0.02,,,0.29,meteohub,2013-01-12 04:24:00,
2013-01-11 23:29:00,46.0,45.5,30.18,East,96,2.0,10.0,98,0.02,,,0.29,meteohub,2013-01-12 04:29:00,
2013-01-11 23:34:00,45.9,45.3,30.18,East,100,2.0,10.0,98,0.02,,,0.29,meteohub,2013-01-12 04:34:00,
2013-01-11 23:39:00,45.9,45.3,30.18,ESE,112,4.0,10.0,98,0.02,,,0.29,meteohub,2013-01-12 04:39:00,
2013-01-11 23:44:00,45.9,45.3,30.18,East,94,2.0,8.0,98,0.02,,,0.29,meteohub,2013-01-12 04:44:00,
2013-01-11 23:49:00,45.9,45.3,30.17,SE,133,2.0,8.0,98,0.02,,,0.29,meteohub,2013-01-12 04:49:00,
2013-01-11 23:54:00,45.9,45.3,30.17,SE,131,1.0,8.0,98,0.02,,,0.29,meteohub,2013-01-12 04:54:00,
2013-01-11 23:59:00,45.7,45.1,30.17,SSE,148,6.0,10.0,98,0.01,,,0.29,meteohub,2013-01-12 04:59:00,